sensor_id;sensor_type;location;lat;lon;timestamp;P1;durP1;ratioP1;P2;durP2;ratioP2
22939;SDS011;11636;52.086;5.090;2023-03-23T00:02:13;7.70;;;4.53;;
22939;SDS011;11636;52.086;5.090;2023-03-23T00:04:45;9.25;;;4.65;;
22939;SDS011;11636;52.086;5.090;2023-03-23T00:07:21;8.80;;;4.50;;
22939;SDS011;11636;52.086;5.090;2023-03-23T00:09:48;8.73;;;4.82;;
22939;SDS011;11636;52.086;5.090;2023-03-23T00:12:26;10.90;;;4.65;;
22939;SDS011;11636;52.086;5.090;2023-03-23T00:15:06;9.38;;;4.53;;
22939;SDS011;11636;52.086;5.090;2023-03-23T00:17:38;7.93;;;4.47;;
22939;SDS011;11636;52.086;5.090;2023-03-23T00:20:12;8.45;;;4.25;;
22939;SDS011;11636;52.086;5.090;2023-03-23T00:22:38;7.80;;;4.03;;
22939;SDS011;11636;52.086;5.090;2023-03-23T00:27:35;7.85;;;4.20;;
22939;SDS011;11636;52.086;5.090;2023-03-23T00:30:01;7.13;;;4.20;;
22939;SDS011;11636;52.086;5.090;2023-03-23T00:32:34;6.72;;;3.90;;
22939;SDS011;11636;52.086;5.090;2023-03-23T00:35:06;7.95;;;4.38;;
22939;SDS011;11636;52.086;5.090;2023-03-23T00:37:39;6.88;;;3.88;;
22939;SDS011;11636;52.086;5.090;2023-03-23T00:40:05;6.35;;;3.60;;
22939;SDS011;11636;52.086;5.090;2023-03-23T00:42:41;6.00;;;3.47;;
22939;SDS011;11636;52.086;5.090;2023-03-23T00:45:09;5.95;;;3.38;;
22939;SDS011;11636;52.086;5.090;2023-03-23T00:47:36;6.38;;;3.85;;
22939;SDS011;11636;52.086;5.090;2023-03-23T00:50:09;8.95;;;4.30;;
22939;SDS011;11636;52.086;5.090;2023-03-23T00:52:35;9.13;;;3.97;;
22939;SDS011;11636;52.086;5.090;2023-03-23T00:55:01;5.70;;;3.17;;
22939;SDS011;11636;52.086;5.090;2023-03-23T00:57:33;7.13;;;3.13;;
22939;SDS011;11636;52.086;5.090;2023-03-23T01:00:05;7.57;;;3.30;;
22939;SDS011;11636;52.086;5.090;2023-03-23T01:02:40;6.75;;;3.38;;
22939;SDS011;11636;52.086;5.090;2023-03-23T01:07:39;5.38;;;2.88;;
22939;SDS011;11636;52.086;5.090;2023-03-23T01:10:18;5.28;;;3.50;;
22939;SDS011;11636;52.086;5.090;2023-03-23T01:12:44;6.97;;;2.92;;
22939;SDS011;11636;52.086;5.090;2023-03-23T01:15:17;8.98;;;2.88;;
22939;SDS011;11636;52.086;5.090;2023-03-23T01:17:50;5.18;;;2.80;;
22939;SDS011;11636;52.086;5.090;2023-03-23T01:20:16;5.00;;;2.60;;
22939;SDS011;11636;52.086;5.090;2023-03-23T01:25:14;7.93;;;3.20;;
22939;SDS011;11636;52.086;5.090;2023-03-23T01:27:46;5.35;;;2.67;;
22939;SDS011;11636;52.086;5.090;2023-03-23T01:30:18;4.47;;;2.65;;
22939;SDS011;11636;52.086;5.090;2023-03-23T01:32:51;6.20;;;2.80;;
22939;SDS011;11636;52.086;5.090;2023-03-23T01:35:18;5.15;;;2.60;;
22939;SDS011;11636;52.086;5.090;2023-03-23T01:37:44;5.68;;;3.10;;
22939;SDS011;11636;52.086;5.090;2023-03-23T01:40:16;7.32;;;3.58;;
22939;SDS011;11636;52.086;5.090;2023-03-23T01:42:42;5.47;;;2.97;;
22939;SDS011;11636;52.086;5.090;2023-03-23T01:45:47;6.68;;;3.05;;
22939;SDS011;11636;52.086;5.090;2023-03-23T01:48:15;6.70;;;3.25;;
22939;SDS011;11636;52.086;5.090;2023-03-23T01:50:59;5.75;;;3.10;;
22939;SDS011;11636;52.086;5.090;2023-03-23T01:53:36;7.22;;;3.25;;
22939;SDS011;11636;52.086;5.090;2023-03-23T01:56:16;9.05;;;3.53;;
22939;SDS011;11636;52.086;5.090;2023-03-23T01:58:45;5.53;;;3.03;;
22939;SDS011;11636;52.086;5.090;2023-03-23T02:01:18;7.05;;;3.08;;
22939;SDS011;11636;52.086;5.090;2023-03-23T02:03:46;5.13;;;2.50;;
22939;SDS011;11636;52.086;5.090;2023-03-23T02:06:13;4.25;;;2.40;;
22939;SDS011;11636;52.086;5.090;2023-03-23T02:08:47;4.70;;;2.72;;
22939;SDS011;11636;52.086;5.090;2023-03-23T02:11:21;7.50;;;3.30;;
22939;SDS011;11636;52.086;5.090;2023-03-23T02:13:48;5.47;;;2.88;;
22939;SDS011;11636;52.086;5.090;2023-03-23T02:31:00;6.85;;;3.00;;
22939;SDS011;11636;52.086;5.090;2023-03-23T02:33:48;5.82;;;3.00;;
22939;SDS011;11636;52.086;5.090;2023-03-23T02:36:32;5.55;;;2.92;;
22939;SDS011;11636;52.086;5.090;2023-03-23T02:39:43;7.00;;;3.25;;
22939;SDS011;11636;52.086;5.090;2023-03-23T02:42:27;4.85;;;2.60;;
22939;SDS011;11636;52.086;5.090;2023-03-23T02:44:56;8.52;;;3.40;;
22939;SDS011;11636;52.086;5.090;2023-03-23T02:47:33;6.45;;;2.80;;
22939;SDS011;11636;52.086;5.090;2023-03-23T02:50:03;6.63;;;2.88;;
22939;SDS011;11636;52.086;5.090;2023-03-23T02:52:39;4.88;;;2.60;;
22939;SDS011;11636;52.086;5.090;2023-03-23T02:55:16;4.55;;;2.30;;
22939;SDS011;11636;52.086;5.090;2023-03-23T02:57:51;7.10;;;2.55;;
22939;SDS011;11636;52.086;5.090;2023-03-23T03:00:24;5.30;;;2.38;;
22939;SDS011;11636;52.086;5.090;2023-03-23T03:02:53;7.75;;;3.10;;
22939;SDS011;11636;52.086;5.090;2023-03-23T03:05:35;8.32;;;2.22;;
22939;SDS011;11636;52.086;5.090;2023-03-23T03:13:44;5.63;;;2.33;;
22939;SDS011;11636;52.086;5.090;2023-03-23T03:16:29;6.30;;;2.17;;
22939;SDS011;11636;52.086;5.090;2023-03-23T03:19:11;6.85;;;2.40;;
22939;SDS011;11636;52.086;5.090;2023-03-23T03:21:48;6.18;;;2.25;;
22939;SDS011;11636;52.086;5.090;2023-03-23T03:24:22;6.13;;;2.25;;
22939;SDS011;11636;52.086;5.090;2023-03-23T03:26:58;5.63;;;2.10;;
22939;SDS011;11636;52.086;5.090;2023-03-23T03:29:34;5.43;;;1.88;;
22939;SDS011;11636;52.086;5.090;2023-03-23T03:32:11;6.88;;;2.30;;
22939;SDS011;11636;52.086;5.090;2023-03-23T03:34:49;6.03;;;2.40;;
22939;SDS011;11636;52.086;5.090;2023-03-23T03:37:15;4.82;;;2.15;;
22939;SDS011;11636;52.086;5.090;2023-03-23T03:39:49;8.43;;;2.63;;
22939;SDS011;11636;52.086;5.090;2023-03-23T03:42:16;4.22;;;1.75;;
22939;SDS011;11636;52.086;5.090;2023-03-23T03:47:21;6.10;;;2.17;;
22939;SDS011;11636;52.086;5.090;2023-03-23T03:49:53;8.45;;;2.33;;
22939;SDS011;11636;52.086;5.090;2023-03-23T03:52:26;6.75;;;2.20;;
22939;SDS011;11636;52.086;5.090;2023-03-23T03:54:52;6.85;;;2.55;;
22939;SDS011;11636;52.086;5.090;2023-03-23T03:57:25;6.45;;;2.20;;
22939;SDS011;11636;52.086;5.090;2023-03-23T03:59:51;4.72;;;2.03;;
22939;SDS011;11636;52.086;5.090;2023-03-23T04:02:24;6.78;;;1.90;;
22939;SDS011;11636;52.086;5.090;2023-03-23T04:04:50;6.40;;;2.10;;
22939;SDS011;11636;52.086;5.090;2023-03-23T04:07:19;6.32;;;2.20;;
22939;SDS011;11636;52.086;5.090;2023-03-23T04:09:52;9.27;;;2.72;;
22939;SDS011;11636;52.086;5.090;2023-03-23T04:12:24;7.68;;;1.92;;
22939;SDS011;11636;52.086;5.090;2023-03-23T04:14:50;6.82;;;2.35;;
22939;SDS011;11636;52.086;5.090;2023-03-23T04:17:16;5.95;;;1.80;;
22939;SDS011;11636;52.086;5.090;2023-03-23T04:19:48;4.70;;;1.60;;
22939;SDS011;11636;52.086;5.090;2023-03-23T04:22:21;6.30;;;2.13;;
22939;SDS011;11636;52.086;5.090;2023-03-23T04:24:57;8.70;;;2.05;;
22939;SDS011;11636;52.086;5.090;2023-03-23T04:27:30;6.47;;;2.20;;
22939;SDS011;11636;52.086;5.090;2023-03-23T04:30:02;6.40;;;1.92;;
22939;SDS011;11636;52.086;5.090;2023-03-23T04:32:30;9.85;;;2.20;;
22939;SDS011;11636;52.086;5.090;2023-03-23T04:35:02;8.38;;;2.00;;
22939;SDS011;11636;52.086;5.090;2023-03-23T04:37:34;11.20;;;2.15;;
22939;SDS011;11636;52.086;5.090;2023-03-23T04:40:07;11.30;;;1.98;;
22939;SDS011;11636;52.086;5.090;2023-03-23T04:42:47;11.02;;;2.20;;
22939;SDS011;11636;52.086;5.090;2023-03-23T04:45:15;7.53;;;1.88;;
22939;SDS011;11636;52.086;5.090;2023-03-23T04:47:52;9.73;;;1.90;;
22939;SDS011;11636;52.086;5.090;2023-03-23T04:50:22;13.27;;;2.45;;
22939;SDS011;11636;52.086;5.090;2023-03-23T04:53:03;8.52;;;1.90;;
22939;SDS011;11636;52.086;5.090;2023-03-23T04:55:30;9.07;;;2.35;;
22939;SDS011;11636;52.086;5.090;2023-03-23T04:57:57;10.82;;;2.22;;
22939;SDS011;11636;52.086;5.090;2023-03-23T05:00:33;10.68;;;2.30;;
22939;SDS011;11636;52.086;5.090;2023-03-23T05:03:06;9.65;;;2.08;;
22939;SDS011;11636;52.086;5.090;2023-03-23T05:05:33;9.18;;;2.38;;
22939;SDS011;11636;52.086;5.090;2023-03-23T05:07:59;12.52;;;2.50;;
22939;SDS011;11636;52.086;5.090;2023-03-23T05:10:31;9.45;;;2.30;;
22939;SDS011;11636;52.086;5.090;2023-03-23T05:12:57;11.80;;;2.40;;
22939;SDS011;11636;52.086;5.090;2023-03-23T05:15:29;16.55;;;3.08;;
22939;SDS011;11636;52.086;5.090;2023-03-23T05:17:55;13.63;;;2.92;;
22939;SDS011;11636;52.086;5.090;2023-03-23T05:22:55;13.32;;;2.58;;
22939;SDS011;11636;52.086;5.090;2023-03-23T05:25:28;10.18;;;2.70;;
22939;SDS011;11636;52.086;5.090;2023-03-23T05:27:54;12.02;;;2.85;;
22939;SDS011;11636;52.086;5.090;2023-03-23T05:30:20;9.40;;;2.42;;
22939;SDS011;11636;52.086;5.090;2023-03-23T05:32:53;11.50;;;2.65;;
22939;SDS011;11636;52.086;5.090;2023-03-23T05:35:19;13.15;;;3.05;;
22939;SDS011;11636;52.086;5.090;2023-03-23T05:37:51;10.95;;;2.55;;
22939;SDS011;11636;52.086;5.090;2023-03-23T05:40:25;11.13;;;2.90;;
22939;SDS011;11636;52.086;5.090;2023-03-23T05:42:53;14.57;;;3.08;;
22939;SDS011;11636;52.086;5.090;2023-03-23T05:45:27;13.70;;;3.00;;
22939;SDS011;11636;52.086;5.090;2023-03-23T05:47:53;17.60;;;3.65;;
22939;SDS011;11636;52.086;5.090;2023-03-23T05:50:25;19.98;;;3.47;;
22939;SDS011;11636;52.086;5.090;2023-03-23T05:52:54;11.65;;;3.47;;
22939;SDS011;11636;52.086;5.090;2023-03-23T05:55:20;15.82;;;3.50;;
22939;SDS011;11636;52.086;5.090;2023-03-23T05:57:54;10.82;;;3.13;;
22939;SDS011;11636;52.086;5.090;2023-03-23T06:00:22;13.80;;;3.78;;
22939;SDS011;11636;52.086;5.090;2023-03-23T06:02:56;10.75;;;2.85;;
22939;SDS011;11636;52.086;5.090;2023-03-23T06:05:22;11.68;;;2.63;;
22939;SDS011;11636;52.086;5.090;2023-03-23T06:07:51;12.63;;;2.88;;
22939;SDS011;11636;52.086;5.090;2023-03-23T06:10:23;12.88;;;2.80;;
22939;SDS011;11636;52.086;5.090;2023-03-23T06:12:55;11.23;;;2.53;;
22939;SDS011;11636;52.086;5.090;2023-03-23T06:15:21;8.88;;;2.83;;
22939;SDS011;11636;52.086;5.090;2023-03-23T06:17:53;12.80;;;3.17;;
22939;SDS011;11636;52.086;5.090;2023-03-23T06:20:21;14.43;;;3.70;;
22939;SDS011;11636;52.086;5.090;2023-03-23T06:23:02;10.23;;;2.95;;
22939;SDS011;11636;52.086;5.090;2023-03-23T06:25:35;15.88;;;4.00;;
22939;SDS011;11636;52.086;5.090;2023-03-23T06:28:13;11.98;;;3.13;;
22939;SDS011;11636;52.086;5.090;2023-03-23T06:30:40;10.13;;;3.17;;
22939;SDS011;11636;52.086;5.090;2023-03-23T06:35:38;12.05;;;3.53;;
22939;SDS011;11636;52.086;5.090;2023-03-23T06:40:37;15.98;;;3.28;;
22939;SDS011;11636;52.086;5.090;2023-03-23T06:43:17;11.52;;;3.03;;
22939;SDS011;11636;52.086;5.090;2023-03-23T06:45:42;13.73;;;3.30;;
22939;SDS011;11636;52.086;5.090;2023-03-23T06:48:14;9.48;;;2.90;;
22939;SDS011;11636;52.086;5.090;2023-03-23T06:50:44;10.60;;;3.17;;
22939;SDS011;11636;52.086;5.090;2023-03-23T06:53:16;12.77;;;3.40;;
22939;SDS011;11636;52.086;5.090;2023-03-23T06:55:43;13.73;;;3.45;;
22939;SDS011;11636;52.086;5.090;2023-03-23T06:58:15;10.73;;;3.13;;
22939;SDS011;11636;52.086;5.090;2023-03-23T07:00:41;11.90;;;3.65;;
22939;SDS011;11636;52.086;5.090;2023-03-23T07:03:08;13.93;;;3.28;;
22939;SDS011;11636;52.086;5.090;2023-03-23T07:05:39;15.15;;;3.30;;
22939;SDS011;11636;52.086;5.090;2023-03-23T07:08:12;12.02;;;3.30;;
22939;SDS011;11636;52.086;5.090;2023-03-23T07:10:38;12.93;;;3.60;;
22939;SDS011;11636;52.086;5.090;2023-03-23T07:13:10;15.40;;;3.63;;
22939;SDS011;11636;52.086;5.090;2023-03-23T07:15:42;11.52;;;3.25;;
22939;SDS011;11636;52.086;5.090;2023-03-23T07:18:09;11.35;;;3.35;;
22939;SDS011;11636;52.086;5.090;2023-03-23T07:20:41;16.10;;;3.55;;
22939;SDS011;11636;52.086;5.090;2023-03-23T07:23:07;10.23;;;2.90;;
22939;SDS011;11636;52.086;5.090;2023-03-23T07:25:43;12.55;;;3.20;;
22939;SDS011;11636;52.086;5.090;2023-03-23T07:28:11;13.05;;;3.40;;
22939;SDS011;11636;52.086;5.090;2023-03-23T07:30:44;14.27;;;3.28;;
22939;SDS011;11636;52.086;5.090;2023-03-23T07:33:10;11.20;;;2.88;;
22939;SDS011;11636;52.086;5.090;2023-03-23T07:35:43;13.75;;;3.00;;
22939;SDS011;11636;52.086;5.090;2023-03-23T07:38:08;20.45;;;3.70;;
22939;SDS011;11636;52.086;5.090;2023-03-23T07:43:07;16.40;;;2.78;;
22939;SDS011;11636;52.086;5.090;2023-03-23T07:45:40;13.98;;;2.78;;
22939;SDS011;11636;52.086;5.090;2023-03-23T07:48:13;12.70;;;2.80;;
22939;SDS011;11636;52.086;5.090;2023-03-23T07:50:46;11.75;;;2.70;;
22939;SDS011;11636;52.086;5.090;2023-03-23T07:53:12;16.33;;;3.63;;
22939;SDS011;11636;52.086;5.090;2023-03-23T07:55:44;12.15;;;2.80;;
22939;SDS011;11636;52.086;5.090;2023-03-23T07:58:10;13.23;;;3.15;;
22939;SDS011;11636;52.086;5.090;2023-03-23T08:00:48;11.18;;;2.70;;
22939;SDS011;11636;52.086;5.090;2023-03-23T08:03:21;10.68;;;2.80;;
22939;SDS011;11636;52.086;5.090;2023-03-23T08:05:46;11.77;;;2.70;;
22939;SDS011;11636;52.086;5.090;2023-03-23T08:10:44;10.27;;;3.30;;
22939;SDS011;11636;52.086;5.090;2023-03-23T08:13:17;10.25;;;2.72;;
22939;SDS011;11636;52.086;5.090;2023-03-23T08:15:43;12.48;;;2.55;;
22939;SDS011;11636;52.086;5.090;2023-03-23T08:20:49;12.18;;;2.50;;
22939;SDS011;11636;52.086;5.090;2023-03-23T08:23:16;9.35;;;2.50;;
22939;SDS011;11636;52.086;5.090;2023-03-23T08:25:48;14.77;;;3.10;;
22939;SDS011;11636;52.086;5.090;2023-03-23T08:28:14;12.93;;;3.28;;
22939;SDS011;11636;52.086;5.090;2023-03-23T08:30:40;11.10;;;3.22;;
22939;SDS011;11636;52.086;5.090;2023-03-23T08:33:20;11.75;;;3.47;;
22939;SDS011;11636;52.086;5.090;2023-03-23T08:35:53;11.65;;;3.22;;
22939;SDS011;11636;52.086;5.090;2023-03-23T08:38:28;18.20;;;3.63;;
22939;SDS011;11636;52.086;5.090;2023-03-23T08:41:02;12.65;;;3.67;;
22939;SDS011;11636;52.086;5.090;2023-03-23T08:43:30;13.27;;;3.17;;
22939;SDS011;11636;52.086;5.090;2023-03-23T08:46:06;14.77;;;3.95;;
22939;SDS011;11636;52.086;5.090;2023-03-23T08:48:34;12.43;;;3.15;;
22939;SDS011;11636;52.086;5.090;2023-03-23T08:51:00;9.90;;;2.88;;
22939;SDS011;11636;52.086;5.090;2023-03-23T08:53:34;12.18;;;3.20;;
22939;SDS011;11636;52.086;5.090;2023-03-23T08:56:09;10.77;;;2.85;;
22939;SDS011;11636;52.086;5.090;2023-03-23T08:58:37;12.98;;;3.40;;
22939;SDS011;11636;52.086;5.090;2023-03-23T09:01:05;14.93;;;3.10;;
22939;SDS011;11636;52.086;5.090;2023-03-23T09:03:38;13.20;;;2.63;;
22939;SDS011;11636;52.086;5.090;2023-03-23T09:06:06;13.35;;;3.58;;
22939;SDS011;11636;52.086;5.090;2023-03-23T09:08:33;15.05;;;3.70;;
22939;SDS011;11636;52.086;5.090;2023-03-23T09:11:07;17.65;;;3.80;;
22939;SDS011;11636;52.086;5.090;2023-03-23T09:13:41;13.45;;;2.80;;
22939;SDS011;11636;52.086;5.090;2023-03-23T09:16:07;12.15;;;3.17;;
22939;SDS011;11636;52.086;5.090;2023-03-23T09:18:34;11.45;;;2.70;;
22939;SDS011;11636;52.086;5.090;2023-03-23T09:21:09;17.73;;;3.10;;
22939;SDS011;11636;52.086;5.090;2023-03-23T09:23:35;17.00;;;3.65;;
22939;SDS011;11636;52.086;5.090;2023-03-23T09:26:01;15.00;;;3.33;;
22939;SDS011;11636;52.086;5.090;2023-03-23T09:28:34;13.82;;;3.03;;
22939;SDS011;11636;52.086;5.090;2023-03-23T09:31:00;12.25;;;3.05;;
22939;SDS011;11636;52.086;5.090;2023-03-23T09:33:32;19.05;;;3.72;;
22939;SDS011;11636;52.086;5.090;2023-03-23T09:35:58;15.80;;;3.10;;
22939;SDS011;11636;52.086;5.090;2023-03-23T09:38:24;11.27;;;3.05;;
22939;SDS011;11636;52.086;5.090;2023-03-23T09:41:15;12.85;;;2.80;;
22939;SDS011;11636;52.086;5.090;2023-03-23T09:49:36;15.50;;;2.67;;
22939;SDS011;11636;52.086;5.090;2023-03-23T09:52:16;12.38;;;2.58;;
22939;SDS011;11636;52.086;5.090;2023-03-23T09:54:44;12.40;;;2.50;;
22939;SDS011;11636;52.086;5.090;2023-03-23T10:00:45;13.00;;;2.90;;
22939;SDS011;11636;52.086;5.090;2023-03-23T10:03:06;15.50;;;2.67;;
22939;SDS011;11636;52.086;5.090;2023-03-23T10:05:40;13.65;;;2.75;;
22939;SDS011;11636;52.086;5.090;2023-03-23T10:08:18;12.82;;;2.70;;
22939;SDS011;11636;52.086;5.090;2023-03-23T10:10:57;11.27;;;2.50;;
22939;SDS011;11636;52.086;5.090;2023-03-23T10:16:17;16.05;;;3.08;;
22939;SDS011;11636;52.086;5.090;2023-03-23T10:21:26;13.18;;;2.45;;
22939;SDS011;11636;52.086;5.090;2023-03-23T10:24:03;12.48;;;3.22;;
22939;SDS011;11636;52.086;5.090;2023-03-23T10:29:14;14.38;;;2.95;;
22939;SDS011;11636;52.086;5.090;2023-03-23T10:31:47;15.90;;;3.03;;
22939;SDS011;11636;52.086;5.090;2023-03-23T10:42:24;12.57;;;3.10;;
22939;SDS011;11636;52.086;5.090;2023-03-23T10:47:48;14.50;;;3.40;;
22939;SDS011;11636;52.086;5.090;2023-03-23T10:50:30;19.52;;;3.05;;
22939;SDS011;11636;52.086;5.090;2023-03-23T10:53:11;11.95;;;2.78;;
22939;SDS011;11636;52.086;5.090;2023-03-23T10:55:48;15.88;;;3.47;;
22939;SDS011;11636;52.086;5.090;2023-03-23T10:58:23;13.90;;;3.45;;
22939;SDS011;11636;52.086;5.090;2023-03-23T11:00:53;18.58;;;3.45;;
22939;SDS011;11636;52.086;5.090;2023-03-23T11:03:28;13.18;;;2.90;;
22939;SDS011;11636;52.086;5.090;2023-03-23T11:06:08;14.32;;;3.25;;
22939;SDS011;11636;52.086;5.090;2023-03-23T11:08:47;15.77;;;3.40;;
22939;SDS011;11636;52.086;5.090;2023-03-23T11:11:29;13.77;;;3.10;;
22939;SDS011;11636;52.086;5.090;2023-03-23T11:14:12;12.18;;;2.85;;
22939;SDS011;11636;52.086;5.090;2023-03-23T11:19:26;13.15;;;2.85;;
22939;SDS011;11636;52.086;5.090;2023-03-23T11:24:33;16.80;;;2.92;;
22939;SDS011;11636;52.086;5.090;2023-03-23T11:27:32;10.77;;;2.63;;
22939;SDS011;11636;52.086;5.090;2023-03-23T11:30:10;13.25;;;2.97;;
22939;SDS011;11636;52.086;5.090;2023-03-23T11:32:54;11.32;;;2.90;;
22939;SDS011;11636;52.086;5.090;2023-03-23T11:35:26;12.07;;;2.75;;
22939;SDS011;11636;52.086;5.090;2023-03-23T11:38:00;12.10;;;2.53;;
22939;SDS011;11636;52.086;5.090;2023-03-23T11:40:27;10.35;;;2.35;;
22939;SDS011;11636;52.086;5.090;2023-03-23T11:43:11;19.08;;;3.20;;
22939;SDS011;11636;52.086;5.090;2023-03-23T11:46:04;17.08;;;3.25;;
22939;SDS011;11636;52.086;5.090;2023-03-23T11:48:55;15.70;;;3.15;;
22939;SDS011;11636;52.086;5.090;2023-03-23T11:54:30;18.80;;;3.75;;
22939;SDS011;11636;52.086;5.090;2023-03-23T11:57:13;14.25;;;3.08;;
22939;SDS011;11636;52.086;5.090;2023-03-23T11:59:47;18.20;;;3.83;;
22939;SDS011;11636;52.086;5.090;2023-03-23T12:14:03;14.65;;;2.78;;
22939;SDS011;11636;52.086;5.090;2023-03-23T12:24:58;9.80;;;2.72;;
22939;SDS011;11636;52.086;5.090;2023-03-23T12:36:29;12.93;;;3.03;;
22939;SDS011;11636;52.086;5.090;2023-03-23T12:42:16;11.32;;;2.58;;
22939;SDS011;11636;52.086;5.090;2023-03-23T12:48:12;9.80;;;2.00;;
22939;SDS011;11636;52.086;5.090;2023-03-23T12:51:01;8.25;;;2.15;;
22939;SDS011;11636;52.086;5.090;2023-03-23T12:53:51;12.90;;;2.00;;
22939;SDS011;11636;52.086;5.090;2023-03-23T12:59:52;8.85;;;2.17;;
22939;SDS011;11636;52.086;5.090;2023-03-23T13:02:44;11.20;;;2.20;;
22939;SDS011;11636;52.086;5.090;2023-03-23T13:05:28;7.90;;;1.83;;
22939;SDS011;11636;52.086;5.090;2023-03-23T13:08:37;8.55;;;2.08;;
22939;SDS011;11636;52.086;5.090;2023-03-23T13:11:15;11.93;;;2.47;;
22939;SDS011;11636;52.086;5.090;2023-03-23T13:13:57;10.55;;;2.63;;
22939;SDS011;11636;52.086;5.090;2023-03-23T13:16:54;12.43;;;2.75;;
22939;SDS011;11636;52.086;5.090;2023-03-23T13:19:32;8.95;;;2.50;;
22939;SDS011;11636;52.086;5.090;2023-03-23T13:22:17;10.95;;;2.63;;
22939;SDS011;11636;52.086;5.090;2023-03-23T13:24:54;9.80;;;2.03;;
22939;SDS011;11636;52.086;5.090;2023-03-23T13:27:31;7.15;;;1.95;;
22939;SDS011;11636;52.086;5.090;2023-03-23T13:29:57;12.73;;;2.15;;
22939;SDS011;11636;52.086;5.090;2023-03-23T13:32:35;10.35;;;2.47;;
22939;SDS011;11636;52.086;5.090;2023-03-23T13:35:13;8.63;;;1.98;;
22939;SDS011;11636;52.086;5.090;2023-03-23T13:37:48;7.88;;;2.05;;
22939;SDS011;11636;52.086;5.090;2023-03-23T13:42:52;12.10;;;2.15;;
22939;SDS011;11636;52.086;5.090;2023-03-23T13:48:18;7.97;;;2.10;;
22939;SDS011;11636;52.086;5.090;2023-03-23T13:53:25;13.95;;;2.35;;
22939;SDS011;11636;52.086;5.090;2023-03-23T13:56:16;10.45;;;2.35;;
22939;SDS011;11636;52.086;5.090;2023-03-23T13:59:04;11.63;;;2.28;;
22939;SDS011;11636;52.086;5.090;2023-03-23T14:01:35;9.82;;;2.30;;
22939;SDS011;11636;52.086;5.090;2023-03-23T14:04:13;8.57;;;1.95;;
22939;SDS011;11636;52.086;5.090;2023-03-23T14:06:48;6.32;;;1.38;;
22939;SDS011;11636;52.086;5.090;2023-03-23T14:09:17;6.93;;;1.90;;
22939;SDS011;11636;52.086;5.090;2023-03-23T14:11:51;7.75;;;1.55;;
22939;SDS011;11636;52.086;5.090;2023-03-23T14:14:32;7.35;;;2.10;;
22939;SDS011;11636;52.086;5.090;2023-03-23T14:17:10;7.50;;;1.95;;
22939;SDS011;11636;52.086;5.090;2023-03-23T14:19:47;7.53;;;1.90;;
22939;SDS011;11636;52.086;5.090;2023-03-23T14:22:19;9.65;;;2.70;;
22939;SDS011;11636;52.086;5.090;2023-03-23T14:25:00;13.32;;;2.40;;
22939;SDS011;11636;52.086;5.090;2023-03-23T14:27:40;9.80;;;2.78;;
22939;SDS011;11636;52.086;5.090;2023-03-23T14:30:18;9.23;;;2.72;;
22939;SDS011;11636;52.086;5.090;2023-03-23T14:32:45;8.75;;;2.38;;
22939;SDS011;11636;52.086;5.090;2023-03-23T14:35:15;12.77;;;2.50;;
22939;SDS011;11636;52.086;5.090;2023-03-23T14:37:53;10.80;;;2.03;;
22939;SDS011;11636;52.086;5.090;2023-03-23T14:40:20;9.48;;;2.42;;
22939;SDS011;11636;52.086;5.090;2023-03-23T14:42:53;8.82;;;2.25;;
22939;SDS011;11636;52.086;5.090;2023-03-23T14:45:21;9.60;;;2.78;;
22939;SDS011;11636;52.086;5.090;2023-03-23T14:47:56;12.43;;;2.42;;
22939;SDS011;11636;52.086;5.090;2023-03-23T14:50:37;9.45;;;2.40;;
22939;SDS011;11636;52.086;5.090;2023-03-23T14:53:39;14.23;;;2.70;;
22939;SDS011;11636;52.086;5.090;2023-03-23T14:56:15;11.45;;;2.58;;
22939;SDS011;11636;52.086;5.090;2023-03-23T14:58:49;13.65;;;2.85;;
22939;SDS011;11636;52.086;5.090;2023-03-23T15:01:24;15.50;;;2.83;;
22939;SDS011;11636;52.086;5.090;2023-03-23T15:04:02;11.32;;;2.45;;
22939;SDS011;11636;52.086;5.090;2023-03-23T15:06:39;11.57;;;2.60;;
22939;SDS011;11636;52.086;5.090;2023-03-23T15:09:19;16.65;;;2.80;;
22939;SDS011;11636;52.086;5.090;2023-03-23T15:11:58;12.20;;;2.70;;
22939;SDS011;11636;52.086;5.090;2023-03-23T15:14:42;15.05;;;2.53;;
22939;SDS011;11636;52.086;5.090;2023-03-23T15:17:24;13.48;;;2.40;;
22939;SDS011;11636;52.086;5.090;2023-03-23T15:19:53;10.48;;;2.28;;
22939;SDS011;11636;52.086;5.090;2023-03-23T15:22:27;12.88;;;3.00;;
22939;SDS011;11636;52.086;5.090;2023-03-23T15:30:37;11.50;;;2.57;;
22939;SDS011;11636;52.086;5.090;2023-03-23T15:33:13;12.23;;;2.30;;
22939;SDS011;11636;52.086;5.090;2023-03-23T15:35:49;13.35;;;2.40;;
22939;SDS011;11636;52.086;5.090;2023-03-23T15:38:29;10.45;;;2.67;;
22939;SDS011;11636;52.086;5.090;2023-03-23T15:41:04;12.45;;;2.58;;
22939;SDS011;11636;52.086;5.090;2023-03-23T15:43:36;9.20;;;2.10;;
22939;SDS011;11636;52.086;5.090;2023-03-23T15:46:23;12.07;;;2.53;;
22939;SDS011;11636;52.086;5.090;2023-03-23T15:48:52;11.05;;;2.40;;
22939;SDS011;11636;52.086;5.090;2023-03-23T15:51:33;17.73;;;3.15;;
22939;SDS011;11636;52.086;5.090;2023-03-23T15:53:59;10.00;;;2.25;;
22939;SDS011;11636;52.086;5.090;2023-03-23T15:56:26;15.77;;;3.47;;
22939;SDS011;11636;52.086;5.090;2023-03-23T15:59:00;11.00;;;2.65;;
22939;SDS011;11636;52.086;5.090;2023-03-23T16:01:29;11.50;;;2.53;;
22939;SDS011;11636;52.086;5.090;2023-03-23T16:04:01;13.15;;;2.58;;
22939;SDS011;11636;52.086;5.090;2023-03-23T16:06:42;11.80;;;3.00;;
22939;SDS011;11636;52.086;5.090;2023-03-23T16:09:15;11.13;;;2.92;;
22939;SDS011;11636;52.086;5.090;2023-03-23T16:11:55;14.73;;;3.25;;
22939;SDS011;11636;52.086;5.090;2023-03-23T16:14:28;10.45;;;2.63;;
22939;SDS011;11636;52.086;5.090;2023-03-23T16:16:55;10.15;;;2.58;;
22939;SDS011;11636;52.086;5.090;2023-03-23T16:19:29;12.70;;;2.63;;
22939;SDS011;11636;52.086;5.090;2023-03-23T16:21:56;16.88;;;3.08;;
22939;SDS011;11636;52.086;5.090;2023-03-23T16:24:22;12.30;;;3.40;;
22939;SDS011;11636;52.086;5.090;2023-03-23T16:26:56;10.35;;;2.72;;
22939;SDS011;11636;52.086;5.090;2023-03-23T16:29:23;14.18;;;3.05;;
22939;SDS011;11636;52.086;5.090;2023-03-23T16:32:16;15.80;;;3.22;;
22939;SDS011;11636;52.086;5.090;2023-03-23T16:34:44;8.70;;;2.33;;
22939;SDS011;11636;52.086;5.090;2023-03-23T16:37:20;12.55;;;3.17;;
22939;SDS011;11636;52.086;5.090;2023-03-23T16:39:46;15.20;;;2.75;;
22939;SDS011;11636;52.086;5.090;2023-03-23T16:42:20;11.32;;;2.90;;
22939;SDS011;11636;52.086;5.090;2023-03-23T16:44:52;12.98;;;3.00;;
22939;SDS011;11636;52.086;5.090;2023-03-23T16:47:20;15.50;;;2.88;;
22939;SDS011;11636;52.086;5.090;2023-03-23T16:49:51;7.97;;;2.10;;
22939;SDS011;11636;52.086;5.090;2023-03-23T16:52:25;8.50;;;2.40;;
22939;SDS011;11636;52.086;5.090;2023-03-23T16:54:58;8.40;;;1.90;;
22939;SDS011;11636;52.086;5.090;2023-03-23T16:57:33;7.95;;;2.33;;
22939;SDS011;11636;52.086;5.090;2023-03-23T17:00:03;13.60;;;2.75;;
22939;SDS011;11636;52.086;5.090;2023-03-23T17:02:39;11.82;;;2.65;;
22939;SDS011;11636;52.086;5.090;2023-03-23T17:05:10;10.07;;;2.33;;
22939;SDS011;11636;52.086;5.090;2023-03-23T17:07:51;10.77;;;2.67;;
22939;SDS011;11636;52.086;5.090;2023-03-23T17:10:20;7.97;;;1.95;;
22939;SDS011;11636;52.086;5.090;2023-03-23T17:12:49;8.88;;;2.33;;
22939;SDS011;11636;52.086;5.090;2023-03-23T17:15:22;10.73;;;2.35;;
22939;SDS011;11636;52.086;5.090;2023-03-23T17:17:51;9.48;;;2.67;;
22939;SDS011;11636;52.086;5.090;2023-03-23T17:20:27;10.13;;;2.35;;
22939;SDS011;11636;52.086;5.090;2023-03-23T17:23:01;10.43;;;2.40;;
22939;SDS011;11636;52.086;5.090;2023-03-23T17:25:29;9.90;;;2.40;;
22939;SDS011;11636;52.086;5.090;2023-03-23T17:28:03;9.80;;;2.25;;
22939;SDS011;11636;52.086;5.090;2023-03-23T17:30:40;11.50;;;3.05;;
22939;SDS011;11636;52.086;5.090;2023-03-23T17:33:09;10.27;;;2.85;;